sensor_id;sensor_type;location;lat;lon;timestamp;temperature;humidity
17944;DHT22;9097;47.028;15.444;2024-02-14T03:33:05;1.40;99.90
17944;DHT22;9097;47.028;15.444;2024-02-14T03:36:09;1.30;99.90
17944;DHT22;9097;47.028;15.444;2024-02-14T03:39:13;1.10;99.90
17944;DHT22;9097;47.028;15.444;2024-02-14T03:42:16;1.20;99.90
17944;DHT22;9097;47.028;15.444;2024-02-14T03:45:18;1.30;99.90
17944;DHT22;9097;47.028;15.444;2024-02-14T03:48:21;1.30;99.90
17944;DHT22;9097;47.028;15.444;2024-02-14T03:51:24;1.10;99.90
17944;DHT22;9097;47.028;15.444;2024-02-14T03:54:28;1.40;99.90
17944;DHT22;9097;47.028;15.444;2024-02-14T03:57:30;1.30;99.90
17944;DHT22;9097;47.028;15.444;2024-02-14T04:00:34;1.10;99.90
17944;DHT22;9097;47.028;15.444;2024-02-14T04:03:37;1.20;99.90
17944;DHT22;9097;47.028;15.444;2024-02-14T04:06:39;1.30;99.90
17944;DHT22;9097;47.028;15.444;2024-02-14T04:09:45;1.10;99.90
17944;DHT22;9097;47.028;15.444;2024-02-14T04:12:47;1.00;99.90
17944;DHT22;9097;47.028;15.444;2024-02-14T04:15:50;1.10;99.90
17944;DHT22;9097;47.028;15.444;2024-02-14T04:18:52;1.10;99.90
17944;DHT22;9097;47.028;15.444;2024-02-14T04:21:57;1.10;99.90
17944;DHT22;9097;47.028;15.444;2024-02-14T04:25:02;1.30;99.90
17944;DHT22;9097;47.028;15.444;2024-02-14T04:28:04;1.30;99.90
17944;DHT22;9097;47.028;15.444;2024-02-14T04:31:07;1.20;99.90
17944;DHT22;9097;47.028;15.444;2024-02-14T04:34:11;1.20;99.90
17944;DHT22;9097;47.028;15.444;2024-02-14T04:37:15;1.20;99.90
17944;DHT22;9097;47.028;15.444;2024-02-14T04:43:23;0.90;99.90
17944;DHT22;9097;47.028;15.444;2024-02-14T04:46:26;0.80;99.90
17944;DHT22;9097;47.028;15.444;2024-02-14T04:49:28;0.90;99.90
17944;DHT22;9097;47.028;15.444;2024-02-14T04:52:31;1.00;99.90
17944;DHT22;9097;47.028;15.444;2024-02-14T04:55:35;1.00;99.90
17944;DHT22;9097;47.028;15.444;2024-02-14T04:58:37;1.20;99.90
17944;DHT22;9097;47.028;15.444;2024-02-14T05:01:40;0.90;99.90
17944;DHT22;9097;47.028;15.444;2024-02-14T05:04:42;0.80;99.90
17944;DHT22;9097;47.028;15.444;2024-02-14T05:07:45;0.90;99.90
17944;DHT22;9097;47.028;15.444;2024-02-14T05:10:49;0.90;99.90
17944;DHT22;9097;47.028;15.444;2024-02-14T05:13:51;0.90;99.90
17944;DHT22;9097;47.028;15.444;2024-02-14T05:16:54;1.10;99.90
17944;DHT22;9097;47.028;15.444;2024-02-14T05:19:57;1.10;99.90
17944;DHT22;9097;47.028;15.444;2024-02-14T05:22:59;1.20;99.90
17944;DHT22;9097;47.028;15.444;2024-02-14T05:26:03;0.80;99.90
17944;DHT22;9097;47.028;15.444;2024-02-14T05:32:08;0.70;99.90
17944;DHT22;9097;47.028;15.444;2024-02-14T05:35:11;0.60;99.90
17944;DHT22;9097;47.028;15.444;2024-02-14T05:38:13;0.50;99.90
17944;DHT22;9097;47.028;15.444;2024-02-14T05:41:18;0.60;99.90
17944;DHT22;9097;47.028;15.444;2024-02-14T05:44:20;0.70;99.90
17944;DHT22;9097;47.028;15.444;2024-02-14T05:47:24;0.70;99.90
17944;DHT22;9097;47.028;15.444;2024-02-14T05:50:27;0.70;99.90
17944;DHT22;9097;47.028;15.444;2024-02-14T05:53:30;0.50;99.90
17944;DHT22;9097;47.028;15.444;2024-02-14T05:56:34;0.40;99.90
17944;DHT22;9097;47.028;15.444;2024-02-14T05:59:36;0.30;99.90
17944;DHT22;9097;47.028;15.444;2024-02-14T06:02:39;0.30;99.90
17944;DHT22;9097;47.028;15.444;2024-02-14T06:05:42;0.40;99.90
17944;DHT22;9097;47.028;15.444;2024-02-14T06:08:44;0.50;99.90
17944;DHT22;9097;47.028;15.444;2024-02-14T06:11:49;0.60;99.90
17944;DHT22;9097;47.028;15.444;2024-02-14T06:14:52;0.50;99.90
17944;DHT22;9097;47.028;15.444;2024-02-14T06:17:54;0.50;99.90
17944;DHT22;9097;47.028;15.444;2024-02-14T06:20:58;0.50;99.90
17944;DHT22;9097;47.028;15.444;2024-02-14T06:24:01;0.60;99.90
17944;DHT22;9097;47.028;15.444;2024-02-14T06:27:06;0.70;99.90
17944;DHT22;9097;47.028;15.444;2024-02-14T06:30:10;0.80;99.90
17944;DHT22;9097;47.028;15.444;2024-02-14T06:33:13;0.80;99.90
17944;DHT22;9097;47.028;15.444;2024-02-14T06:36:16;0.80;99.90
17944;DHT22;9097;47.028;15.444;2024-02-14T06:39:19;0.90;99.90
17944;DHT22;9097;47.028;15.444;2024-02-14T06:42:23;1.00;99.90
17944;DHT22;9097;47.028;15.444;2024-02-14T06:45:26;1.00;99.90
17944;DHT22;9097;47.028;15.444;2024-02-14T06:48:28;1.00;99.90
17944;DHT22;9097;47.028;15.444;2024-02-14T06:51:31;1.10;99.90
17944;DHT22;9097;47.028;15.444;2024-02-14T06:54:34;1.10;99.90
17944;DHT22;9097;47.028;15.444;2024-02-14T06:57:39;1.20;99.90
17944;DHT22;9097;47.028;15.444;2024-02-14T07:00:41;1.30;99.90
17944;DHT22;9097;47.028;15.444;2024-02-14T07:03:45;1.40;99.90
17944;DHT22;9097;47.028;15.444;2024-02-14T07:06:48;1.50;99.90
17944;DHT22;9097;47.028;15.444;2024-02-14T07:09:50;1.60;99.90
17944;DHT22;9097;47.028;15.444;2024-02-14T07:12:54;1.70;99.90
17944;DHT22;9097;47.028;15.444;2024-02-14T07:15:57;1.80;99.90
17944;DHT22;9097;47.028;15.444;2024-02-14T07:18:59;2.00;99.90
17944;DHT22;9097;47.028;15.444;2024-02-14T07:22:02;2.00;99.90
17944;DHT22;9097;47.028;15.444;2024-02-14T07:25:05;2.20;99.90
17944;DHT22;9097;47.028;15.444;2024-02-14T07:28:11;2.30;99.90
17944;DHT22;9097;47.028;15.444;2024-02-14T07:31:14;2.60;99.90
17944;DHT22;9097;47.028;15.444;2024-02-14T07:34:16;2.80;99.90
17944;DHT22;9097;47.028;15.444;2024-02-14T07:37:19;3.00;99.90
17944;DHT22;9097;47.028;15.444;2024-02-14T07:40:22;3.20;99.90
17944;DHT22;9097;47.028;15.444;2024-02-14T07:43:26;3.30;99.90
17944;DHT22;9097;47.028;15.444;2024-02-14T07:46:29;3.50;99.90
17944;DHT22;9097;47.028;15.444;2024-02-14T07:49:32;3.60;99.90
17944;DHT22;9097;47.028;15.444;2024-02-14T07:52:35;3.80;99.90
17944;DHT22;9097;47.028;15.444;2024-02-14T07:55:38;4.10;99.90
17944;DHT22;9097;47.028;15.444;2024-02-14T07:58:42;4.40;99.90
17944;DHT22;9097;47.028;15.444;2024-02-14T08:01:45;4.50;99.90
17944;DHT22;9097;47.028;15.444;2024-02-14T08:04:47;4.60;99.90
17944;DHT22;9097;47.028;15.444;2024-02-14T08:07:50;4.70;99.90
17944;DHT22;9097;47.028;15.444;2024-02-14T08:10:53;4.80;99.90
17944;DHT22;9097;47.028;15.444;2024-02-14T08:13:57;4.90;99.90
17944;DHT22;9097;47.028;15.444;2024-02-14T08:17:00;5.10;99.90
17944;DHT22;9097;47.028;15.444;2024-02-14T08:20:05;5.20;99.90
17944;DHT22;9097;47.028;15.444;2024-02-14T08:23:08;5.40;99.90
17944;DHT22;9097;47.028;15.444;2024-02-14T08:26:10;5.70;99.90
17944;DHT22;9097;47.028;15.444;2024-02-14T08:32:17;6.10;99.90
17944;DHT22;9097;47.028;15.444;2024-02-14T08:35:20;6.20;99.90
17944;DHT22;9097;47.028;15.444;2024-02-14T08:41:25;6.70;99.90
17944;DHT22;9097;47.028;15.444;2024-02-14T08:44:29;6.80;99.90
17944;DHT22;9097;47.028;15.444;2024-02-14T08:50:34;6.90;99.90
17944;DHT22;9097;47.028;15.444;2024-02-14T08:53:37;7.40;99.90
17944;DHT22;9097;47.028;15.444;2024-02-14T08:56:40;7.90;99.90
17944;DHT22;9097;47.028;15.444;2024-02-14T08:59:44;7.70;99.90
17944;DHT22;9097;47.028;15.444;2024-02-14T09:02:48;8.10;99.90
17944;DHT22;9097;47.028;15.444;2024-02-14T10:00:59;32.60;82.00
17944;DHT22;9097;47.028;15.444;2024-02-14T10:04:02;33.10;78.30
17944;DHT22;9097;47.028;15.444;2024-02-14T10:40:44;31.60;45.40
17944;DHT22;9097;47.028;15.444;2024-02-14T10:43:49;31.70;45.20
17944;DHT22;9097;47.028;15.444;2024-02-14T20:10:12;6.80;99.90
17944;DHT22;9097;47.028;15.444;2024-02-14T20:16:23;6.30;99.90
17944;DHT22;9097;47.028;15.444;2024-02-14T20:19:27;6.30;99.90
17944;DHT22;9097;47.028;15.444;2024-02-14T20:22:29;6.20;99.90
17944;DHT22;9097;47.028;15.444;2024-02-14T20:25:33;6.40;99.90
17944;DHT22;9097;47.028;15.444;2024-02-14T20:28:37;6.30;99.90
17944;DHT22;9097;47.028;15.444;2024-02-14T20:31:40;6.10;99.90
17944;DHT22;9097;47.028;15.444;2024-02-14T21:08:29;5.30;99.90
17944;DHT22;9097;47.028;15.444;2024-02-14T21:11:31;5.10;99.90
17944;DHT22;9097;47.028;15.444;2024-02-14T21:14:35;5.20;99.90
17944;DHT22;9097;47.028;15.444;2024-02-14T21:17:38;5.20;99.90
17944;DHT22;9097;47.028;15.444;2024-02-14T21:20:40;5.20;99.90
17944;DHT22;9097;47.028;15.444;2024-02-14T21:23:42;5.40;99.90
17944;DHT22;9097;47.028;15.444;2024-02-14T21:26:55;5.30;99.90
17944;DHT22;9097;47.028;15.444;2024-02-14T21:30:00;5.00;99.90
17944;DHT22;9097;47.028;15.444;2024-02-14T21:33:04;5.10;99.90
17944;DHT22;9097;47.028;15.444;2024-02-14T21:36:07;5.10;99.90
17944;DHT22;9097;47.028;15.444;2024-02-14T21:39:09;5.00;99.90
17944;DHT22;9097;47.028;15.444;2024-02-14T21:42:12;4.90;99.90
17944;DHT22;9097;47.028;15.444;2024-02-14T21:45:16;5.00;99.90
17944;DHT22;9097;47.028;15.444;2024-02-14T21:48:18;4.80;99.90
17944;DHT22;9097;47.028;15.444;2024-02-14T22:28:00;4.40;99.90
17944;DHT22;9097;47.028;15.444;2024-02-14T22:31:06;4.50;99.90
17944;DHT22;9097;47.028;15.444;2024-02-14T22:40:16;4.20;99.90
17944;DHT22;9097;47.028;15.444;2024-02-14T23:26:03;3.80;99.90
17944;DHT22;9097;47.028;15.444;2024-02-14T23:29:06;3.70;99.90
17944;DHT22;9097;47.028;15.444;2024-02-14T23:32:10;3.60;99.90
17944;DHT22;9097;47.028;15.444;2024-02-14T23:35:12;3.60;99.90
17944;DHT22;9097;47.028;15.444;2024-02-14T23:38:14;3.60;99.90
17944;DHT22;9097;47.028;15.444;2024-02-14T23:41:17;3.50;99.90
17944;DHT22;9097;47.028;15.444;2024-02-14T23:44:21;3.40;99.90
17944;DHT22;9097;47.028;15.444;2024-02-14T23:47:25;3.30;99.90
17944;DHT22;9097;47.028;15.444;2024-02-14T23:50:28;3.30;99.90
17944;DHT22;9097;47.028;15.444;2024-02-14T23:53:31;3.30;99.90
17944;DHT22;9097;47.028;15.444;2024-02-14T23:56:33;3.50;99.90
17944;DHT22;9097;47.028;15.444;2024-02-14T23:59:36;3.70;99.90
